createdAt,value
2019-05-19T00:00:03.484Z,98481.88
2019-05-19T00:02:34.103Z,98479.80
2019-05-19T00:05:04.882Z,98481.78
2019-05-19T00:07:54.744Z,98481.61
2019-05-19T00:10:44.562Z,98483.29
2019-05-19T00:13:34.370Z,98468.86
2019-05-19T00:16:06.469Z,98473.99
2019-05-19T00:18:56.343Z,98475.72
2019-05-19T00:21:46.176Z,98478.09
2019-05-19T00:24:35.971Z,98476.97
2019-05-19T00:27:06.849Z,98471.63
2019-05-19T00:29:37.253Z,98470.57
2019-05-19T00:32:27.044Z,98473.31
2019-05-19T00:35:16.877Z,98478.70
2019-05-19T00:37:47.274Z,98479.48
2019-05-19T00:40:37.055Z,98478.16
2019-05-19T00:43:27.019Z,98484.13
2019-05-19T00:49:38.895Z,98481.88
2019-05-19T00:52:17.702Z,98480.67
2019-05-19T00:55:09.771Z,98481.10
2019-05-19T01:01:20.769Z,98484.19
2019-05-19T01:04:10.588Z,98480.96
2019-05-19T01:07:00.389Z,98481.17
2019-05-19T01:09:50.276Z,98478.88
2019-05-19T01:12:40.154Z,98476.13
2019-05-19T01:15:29.959Z,98473.33
2019-05-19T01:18:19.920Z,98472.92
2019-05-19T01:20:50.362Z,98473.06
2019-05-19T01:23:40.255Z,98469.32
2019-05-19T01:26:30.347Z,98467.23
2019-05-19T01:29:02.429Z,98461.24
2019-05-19T01:31:52.346Z,98455.78
2019-05-19T01:34:42.205Z,98470.73
2019-05-19T01:37:32.144Z,98468.61
2019-05-19T01:40:22.030Z,98473.36
2019-05-19T01:43:11.922Z,98468.52
2019-05-19T01:46:01.855Z,98461.53
2019-05-19T01:48:51.745Z,98462.94
2019-05-19T01:51:41.632Z,98463.34
2019-05-19T01:54:31.461Z,98462.27
2019-05-19T01:57:21.304Z,98457.83
2019-05-19T02:03:14.684Z,98451.27
2019-05-19T02:06:04.490Z,98454.50
2019-05-19T02:08:54.325Z,98459.95
2019-05-19T02:11:44.110Z,98459.41
2019-05-19T02:14:33.938Z,98465.52
2019-05-19T02:17:23.761Z,98471.74
2019-05-19T02:20:13.848Z,98470.50
2019-05-19T02:23:03.687Z,98468.52
2019-05-19T02:25:53.548Z,98468.52
2019-05-19T02:28:43.408Z,98466.09
2019-05-19T02:31:33.227Z,98466.16
2019-05-19T02:34:23.044Z,98465.38
2019-05-19T02:37:12.897Z,98472.19
2019-05-19T02:40:02.745Z,98475.95
2019-05-19T02:43:04.278Z,98482.62
2019-05-19T03:00:55.951Z,98470.33
2019-05-19T03:03:45.757Z,98478.41
2019-05-19T03:06:35.658Z,98471.55
2019-05-19T03:09:44.463Z,98469.08
2019-05-19T03:12:34.295Z,98473.61
2019-05-19T03:15:05.201Z,98473.53
2019-05-19T03:17:55.043Z,98469.58
2019-05-19T03:20:44.902Z,98465.96
2019-05-19T03:23:34.761Z,98463.41
2019-05-19T03:26:05.330Z,98460.77
2019-05-19T03:28:55.204Z,98459.05
2019-05-19T03:34:33.277Z,98451.80
2019-05-19T03:37:23.228Z,98450.41
2019-05-19T03:40:31.925Z,98447.30
2019-05-19T03:43:22.258Z,98451.17
2019-05-19T03:45:52.730Z,98459.44
2019-05-19T03:48:42.534Z,98455.84
2019-05-19T03:51:32.920Z,98449.64
2019-05-19T03:54:22.795Z,98452.39
2019-05-19T03:56:53.320Z,98448.52
2019-05-19T03:59:43.125Z,98448.60
2019-05-19T04:02:32.929Z,98447.16
2019-05-19T04:05:22.662Z,98447.67
2019-05-19T04:08:12.516Z,98448.02
2019-05-19T04:11:02.272Z,98444.41
2019-05-19T04:13:52.082Z,98451.14
2019-05-19T04:16:41.872Z,98457.37
2019-05-19T04:19:12.320Z,98459.89
2019-05-19T04:22:02.503Z,98451.86
2019-05-19T04:24:52.276Z,98457.91
2019-05-19T04:27:42.109Z,98455.02
2019-05-19T04:30:31.929Z,98460.06
2019-05-19T04:33:02.385Z,98459.26
2019-05-19T04:35:52.212Z,98459.05
2019-05-19T04:38:41.994Z,98465.22
2019-05-19T04:41:31.899Z,98451.72
2019-05-19T04:44:21.724Z,98454.17
2019-05-19T04:47:11.558Z,98453.91
2019-05-19T04:50:01.341Z,98446.95
2019-05-19T04:52:52.001Z,98443.23
2019-05-19T04:55:41.879Z,98447.68
2019-05-19T04:58:31.700Z,98447.43
2019-05-19T05:01:21.626Z,98448.48
2019-05-19T05:03:52.036Z,98443.95
2019-05-19T05:06:41.815Z,98443.67
2019-05-19T05:09:31.626Z,98443.39
2019-05-19T05:12:21.540Z,98442.05
2019-05-19T05:15:11.547Z,98441.49
2019-05-19T05:18:01.349Z,98445.50
2019-05-19T05:20:51.169Z,98439.73
2019-05-19T05:23:40.922Z,98444.45
2019-05-19T05:26:30.752Z,98450.96
2019-05-19T05:29:34.472Z,98442.44
2019-05-19T05:32:03.373Z,98441.39
2019-05-19T05:34:53.172Z,98439.28
2019-05-19T05:37:23.577Z,98437.13
2019-05-19T05:40:13.462Z,98437.27
2019-05-19T05:43:03.233Z,98437.10
2019-05-19T05:45:52.989Z,98437.27
2019-05-19T05:48:42.846Z,98442.15
2019-05-19T05:51:32.617Z,98444.31
2019-05-19T05:54:22.501Z,98440.31
2019-05-19T05:57:12.239Z,98442.20
2019-05-19T05:59:42.660Z,98445.66
2019-05-19T06:02:32.425Z,98444.94
2019-05-19T06:05:22.255Z,98446.73
2019-05-19T06:07:52.624Z,98449.10
2019-05-19T06:10:42.405Z,98452.70
2019-05-19T06:13:32.170Z,98450.64
2019-05-19T06:16:21.976Z,98453.77
2019-05-19T06:19:11.791Z,98452.02
2019-05-19T06:22:01.590Z,98451.62
2019-05-19T06:24:33.695Z,98456.61
2019-05-19T06:27:23.446Z,98453.92
2019-05-19T06:30:13.381Z,98459.67
2019-05-19T06:35:59.796Z,98461.42
2019-05-19T06:38:49.711Z,98462.53
2019-05-19T06:41:26.503Z,98459.28
2019-05-19T06:44:16.287Z,98456.17
2019-05-19T06:47:06.066Z,98461.16
2019-05-19T06:49:55.848Z,98459.41
2019-05-19T06:52:45.616Z,98449.91
2019-05-19T06:55:35.490Z,98450.95
2019-05-19T06:58:07.534Z,98447.59
2019-05-19T07:00:59.280Z,98446.98
2019-05-19T07:03:48.826Z,98444.69
2019-05-19T07:06:38.686Z,98443.23
2019-05-19T07:09:28.704Z,98439.70
2019-05-19T07:11:59.136Z,98441.73
2019-05-19T07:14:48.935Z,98449.05
2019-05-19T07:17:38.760Z,98443.00
2019-05-19T07:23:28.344Z,98438.39
2019-05-19T07:26:09.255Z,98440.22
2019-05-19T07:28:59.131Z,98438.33
2019-05-19T07:31:48.936Z,98442.98
2019-05-19T07:34:38.766Z,98442.68
2019-05-19T07:37:28.608Z,98439.68
2019-05-19T07:39:59.288Z,98437.39
2019-05-19T07:43:00.833Z,98440.15
2019-05-19T07:45:34.649Z,98439.55
2019-05-19T07:48:05.078Z,98438.33
2019-05-19T07:50:54.915Z,98436.88
2019-05-19T07:53:45.606Z,98441.76
2019-05-19T07:56:35.391Z,98433.80
2019-05-19T07:59:08.102Z,98431.09
2019-05-19T08:01:50.546Z,98432.79
2019-05-19T08:04:20.980Z,98426.55
2019-05-19T08:07:10.785Z,98418.42
2019-05-19T08:09:41.239Z,98423.16
2019-05-19T08:12:11.646Z,98424.97
2019-05-19T08:15:01.514Z,98419.20
2019-05-19T08:17:51.403Z,98418.96
2019-05-19T08:20:41.266Z,98420.51
2019-05-19T08:23:31.089Z,98422.25
2019-05-19T08:26:20.915Z,98413.26
2019-05-19T08:29:10.719Z,98415.24
2019-05-19T08:32:00.544Z,98410.38
2019-05-19T08:37:35.611Z,98420.72
2019-05-19T08:40:07.751Z,98407.88
2019-05-19T08:42:57.578Z,98409.74
2019-05-19T08:45:47.381Z,98415.48
2019-05-19T08:48:37.206Z,98417.09
2019-05-19T08:51:27.014Z,98409.62
2019-05-19T08:54:18.960Z,98415.72
2019-05-19T08:57:08.331Z,98410.00
2019-05-19T08:59:38.814Z,98412.41
2019-05-19T09:02:28.581Z,98411.74
2019-05-19T09:04:59.058Z,98418.55
2019-05-19T09:07:29.763Z,98415.73
2019-05-19T09:10:20.599Z,98409.96
2019-05-19T09:12:52.704Z,98411.98
2019-05-19T09:15:42.709Z,98411.21
2019-05-19T09:18:32.584Z,98407.67
2019-05-19T09:21:22.447Z,98408.23
2019-05-19T09:24:12.357Z,98412.37
2019-05-19T09:26:42.765Z,98411.52
2019-05-19T09:29:32.612Z,98403.64
2019-05-19T09:32:22.442Z,98416.50
2019-05-19T09:38:16.755Z,98421.36
2019-05-19T09:41:06.625Z,98422.93
2019-05-19T09:43:56.458Z,98422.71
2019-05-19T09:46:46.218Z,98420.63
2019-05-19T09:49:36.312Z,98420.12
2019-05-19T09:52:26.091Z,98416.55
2019-05-19T09:58:39.859Z,98418.10
2019-05-19T10:01:29.704Z,98408.86
2019-05-19T10:04:19.600Z,98409.55
2019-05-19T10:07:09.721Z,98414.80
2019-05-19T10:13:15.027Z,98408.80
2019-05-19T10:16:04.844Z,98408.09
2019-05-19T10:18:54.644Z,98400.79
2019-05-19T10:21:44.498Z,98392.06
2019-05-19T10:24:15.087Z,98388.11
2019-05-19T10:27:05.039Z,98384.91
2019-05-19T10:29:54.927Z,98383.80
2019-05-19T10:32:44.812Z,98369.84
2019-05-19T10:35:34.741Z,98367.09
2019-05-19T10:38:05.343Z,98369.16
2019-05-19T10:40:55.139Z,98366.48
2019-05-19T10:43:44.989Z,98365.37
2019-05-19T10:46:34.771Z,98367.84
2019-05-19T10:49:05.390Z,98361.69
2019-05-19T10:51:55.370Z,98363.82
2019-05-19T10:54:45.203Z,98362.23
2019-05-19T10:57:35.130Z,98356.48
2019-05-19T11:03:09.069Z,98357.65
2019-05-19T11:05:41.090Z,98361.87
2019-05-19T11:08:30.907Z,98356.44
2019-05-19T11:11:21.209Z,98351.36
2019-05-19T11:14:11.084Z,98349.77
2019-05-19T11:17:00.880Z,98356.95
2019-05-19T11:19:50.690Z,98352.77
2019-05-19T11:22:40.530Z,98358.02
2019-05-19T11:25:33.813Z,98356.31
2019-05-19T11:28:17.637Z,98357.70
2019-05-19T11:31:07.466Z,98351.52
2019-05-19T11:33:57.355Z,98353.30
2019-05-19T11:36:47.211Z,98356.48
2019-05-19T11:39:37.077Z,98362.06
2019-05-19T11:42:26.907Z,98362.98
2019-05-19T11:45:16.746Z,98364.80
2019-05-19T11:47:47.500Z,98366.31
2019-05-19T11:50:41.697Z,98360.37
2019-05-19T11:53:20.331Z,98352.89
2019-05-19T11:56:11.479Z,98348.99
2019-05-19T11:58:53.626Z,98342.17
2019-05-19T12:01:43.529Z,98356.44
2019-05-19T12:04:33.398Z,98340.23
2019-05-19T12:07:23.224Z,98352.94
2019-05-19T12:10:13.168Z,98354.70
2019-05-19T12:13:03.027Z,98352.41
2019-05-19T12:15:52.871Z,98345.81
2019-05-19T12:18:42.670Z,98347.64
2019-05-19T12:21:32.660Z,98348.45
2019-05-19T12:24:03.095Z,98346.20
2019-05-19T12:26:52.953Z,98349.35
2019-05-19T12:29:42.773Z,98339.22
2019-05-19T12:32:32.640Z,98331.20
2019-05-19T12:35:22.458Z,98321.48
2019-05-19T12:38:12.309Z,98327.09
2019-05-19T12:41:02.317Z,98322.17
2019-05-19T12:43:52.151Z,98320.12
2019-05-19T12:46:41.978Z,98318.55
2019-05-19T12:49:31.857Z,98319.84
2019-05-19T12:52:21.704Z,98316.81
2019-05-19T12:55:11.644Z,98306.88
2019-05-19T12:58:01.542Z,98312.74
2019-05-19T13:00:51.448Z,98313.93
2019-05-19T13:03:42.327Z,98305.86
2019-05-19T13:06:32.249Z,98308.70
2019-05-19T13:09:05.439Z,98305.47
2019-05-19T13:11:55.319Z,98305.69
2019-05-19T13:14:45.169Z,98297.12
2019-05-19T13:17:34.977Z,98287.14
2019-05-19T13:23:10.319Z,98286.13
2019-05-19T13:25:40.750Z,98286.92
2019-05-19T13:28:30.683Z,98274.34
2019-05-19T13:31:20.618Z,98282.70
2019-05-19T13:34:10.487Z,98276.70
2019-05-19T13:37:00.301Z,98285.42
2019-05-19T13:39:50.375Z,98284.49
2019-05-19T13:42:40.199Z,98275.65
2019-05-19T13:45:30.062Z,98280.45
2019-05-19T13:48:19.913Z,98279.80
2019-05-19T13:51:09.830Z,98281.35
2019-05-19T13:53:59.724Z,98279.98
2019-05-19T13:56:49.543Z,98289.11
2019-05-19T13:59:39.409Z,98282.96
2019-05-19T14:02:29.216Z,98280.22
2019-05-19T14:05:19.067Z,98273.11
2019-05-19T14:08:08.915Z,98285.09
2019-05-19T14:10:58.730Z,98273.77
2019-05-19T14:13:48.566Z,98275.77
2019-05-19T14:16:38.387Z,98272.23
2019-05-19T14:19:28.265Z,98271.88
2019-05-19T14:22:18.123Z,98264.50
2019-05-19T14:25:08.022Z,98264.89
2019-05-19T14:27:57.867Z,98259.42
2019-05-19T14:30:47.709Z,98258.31
2019-05-19T14:33:37.533Z,98256.09
2019-05-19T14:36:27.320Z,98255.66
2019-05-19T14:39:17.183Z,98255.47
2019-05-19T14:44:53.405Z,98258.10
2019-05-19T14:47:43.216Z,98258.47
2019-05-19T14:50:33.055Z,98253.99
2019-05-19T14:53:23.002Z,98256.03
2019-05-19T14:56:12.856Z,98254.42
2019-05-19T14:59:02.771Z,98258.94
2019-05-19T15:01:52.888Z,98248.66
2019-05-19T15:04:23.373Z,98251.80
2019-05-19T15:07:13.193Z,98248.41
2019-05-19T15:10:02.998Z,98243.55
2019-05-19T15:12:52.790Z,98244.23
2019-05-19T15:15:23.295Z,98240.04
2019-05-19T15:17:53.827Z,98234.55
2019-05-19T15:20:24.371Z,98230.97
2019-05-19T15:22:55.139Z,98227.33
2019-05-19T15:25:25.725Z,98220.86
2019-05-19T15:28:15.555Z,98226.87
2019-05-19T15:31:05.516Z,98221.53
2019-05-19T15:33:55.393Z,98239.84
2019-05-19T15:36:25.831Z,98243.25
2019-05-19T15:39:15.628Z,98240.00
2019-05-19T15:42:05.434Z,98238.46
2019-05-19T15:44:35.864Z,98239.11
2019-05-19T15:47:07.898Z,98237.02
2019-05-19T15:49:57.864Z,98229.30
2019-05-19T15:52:28.393Z,98237.58
2019-05-19T15:55:18.246Z,98232.78
2019-05-19T15:58:16.104Z,98235.45
2019-05-19T16:00:50.867Z,98231.36
2019-05-19T16:03:40.657Z,98232.55
2019-05-19T16:06:30.475Z,98231.66
2019-05-19T16:09:20.354Z,98221.27
2019-05-19T16:12:10.380Z,98220.51
2019-05-19T16:15:00.369Z,98227.81
2019-05-19T16:17:50.192Z,98229.84
2019-05-19T16:20:40.031Z,98229.88
2019-05-19T16:23:29.928Z,98230.98
2019-05-19T16:26:19.776Z,98230.70
2019-05-19T16:29:09.626Z,98227.55
2019-05-19T16:31:59.442Z,98228.16
2019-05-19T16:34:29.909Z,98223.90
2019-05-19T16:37:19.774Z,98233.53
2019-05-19T16:43:14.078Z,98229.73
2019-05-19T16:45:44.563Z,98218.95
2019-05-19T16:48:34.401Z,98214.70
2019-05-19T16:51:25.188Z,98207.44
2019-05-19T16:57:14.658Z,98202.84
2019-05-19T17:00:05.186Z,98212.73
2019-05-19T17:02:55.084Z,98220.86
2019-05-19T17:05:44.917Z,98222.72
2019-05-19T17:08:34.793Z,98218.64
2019-05-19T17:11:24.610Z,98221.39
2019-05-19T17:14:14.446Z,98218.95
2019-05-19T17:17:04.394Z,98221.34
2019-05-19T17:19:54.264Z,98220.52
2019-05-19T17:22:44.116Z,98216.30
2019-05-19T17:25:34.021Z,98208.84
2019-05-19T17:28:23.952Z,98208.53
2019-05-19T17:31:13.767Z,98211.47
2019-05-19T17:34:03.587Z,98211.00
2019-05-19T17:36:59.455Z,98204.58
2019-05-19T17:39:49.264Z,98212.83
2019-05-19T17:42:39.118Z,98207.63
2019-05-19T17:45:29.105Z,98205.01
2019-05-19T17:48:09.545Z,98195.53
2019-05-19T17:50:51.173Z,98200.86
2019-05-19T17:53:41.002Z,98192.45
2019-05-19T17:56:31.101Z,98191.95
2019-05-19T17:59:21.166Z,98191.94
2019-05-19T18:02:11.029Z,98185.23
2019-05-19T18:05:04.383Z,98192.52
2019-05-19T18:07:54.185Z,98180.42
2019-05-19T18:10:44.070Z,98174.26
2019-05-19T18:13:33.897Z,98171.12
2019-05-19T18:16:23.839Z,98176.16
2019-05-19T18:18:54.254Z,98176.05
2019-05-19T18:21:25.225Z,98173.61
2019-05-19T18:24:15.268Z,98173.48
2019-05-19T18:26:45.854Z,98172.08
2019-05-19T18:29:35.664Z,98169.87
2019-05-19T18:38:09.327Z,98166.33
2019-05-19T18:40:59.186Z,98158.09
2019-05-19T18:43:49.034Z,98159.81
2019-05-19T18:46:38.894Z,98157.58
2019-05-19T18:49:28.759Z,98160.96
2019-05-19T18:51:59.247Z,98158.91
2019-05-19T18:54:50.518Z,98162.55
2019-05-19T18:57:28.490Z,98156.59
2019-05-19T19:03:25.336Z,98154.10
2019-05-19T19:06:15.220Z,98155.52
2019-05-19T19:09:06.201Z,98163.11
2019-05-19T19:11:55.981Z,98162.72
2019-05-19T19:14:45.936Z,98152.77
2019-05-19T19:17:35.704Z,98147.52
2019-05-19T19:20:06.322Z,98151.58
2019-05-19T19:22:56.109Z,98143.94
2019-05-19T19:25:32.399Z,98142.17
2019-05-19T19:28:22.612Z,98139.62
2019-05-19T19:31:12.472Z,98133.82
2019-05-19T19:34:02.378Z,98139.69
2019-05-19T19:36:52.188Z,98135.45
2019-05-19T19:39:42.003Z,98132.51
2019-05-19T19:42:31.894Z,98138.20
2019-05-19T19:45:21.826Z,98145.01
2019-05-19T19:47:54.205Z,98142.89
2019-05-19T19:50:44.053Z,98133.73
2019-05-19T19:53:33.842Z,98143.56
2019-05-19T19:56:23.686Z,98159.03
2019-05-19T19:59:15.826Z,98158.57
2019-05-19T20:02:05.648Z,98151.64
2019-05-19T20:04:55.478Z,98151.53
2019-05-19T20:07:25.906Z,98151.43
2019-05-19T20:10:15.768Z,98153.73
2019-05-19T20:13:06.623Z,98153.72
2019-05-19T20:15:56.480Z,98160.12
2019-05-19T20:18:46.303Z,98153.50
2019-05-19T20:21:36.154Z,98148.58
2019-05-19T20:24:06.551Z,98150.49
2019-05-19T20:26:56.419Z,98158.70
2019-05-19T20:32:35.673Z,98165.99
2019-05-19T20:38:27.343Z,98168.28
2019-05-19T20:41:17.500Z,98167.34
2019-05-19T20:44:07.351Z,98167.55
2019-05-19T20:46:57.224Z,98170.82
2019-05-19T20:49:47.060Z,98159.72
2019-05-19T20:52:36.920Z,98168.63
2019-05-19T20:55:26.803Z,98161.11
2019-05-19T20:58:16.613Z,98162.56
2019-05-19T21:01:06.486Z,98161.11
2019-05-19T21:03:56.296Z,98162.86
2019-05-19T21:06:46.134Z,98161.89
2019-05-19T21:09:16.561Z,98159.80
2019-05-19T21:12:06.478Z,98155.82
2019-05-19T21:14:56.393Z,98160.14
2019-05-19T21:17:27.048Z,98154.36
2019-05-19T21:20:16.945Z,98148.47
2019-05-19T21:23:06.913Z,98139.27
2019-05-19T21:25:56.754Z,98134.52
2019-05-19T21:28:46.553Z,98129.36
2019-05-19T21:31:36.325Z,98126.61
2019-05-19T21:34:06.744Z,98129.17
2019-05-19T21:36:56.545Z,98125.32
2019-05-19T21:39:46.353Z,98136.83
2019-05-19T21:42:36.205Z,98132.06
2019-05-19T21:48:09.083Z,98134.74
2019-05-19T21:50:58.969Z,98139.50
2019-05-19T21:53:48.764Z,98140.17
2019-05-19T21:56:41.083Z,98139.77
2019-05-19T21:59:31.000Z,98140.30
2019-05-19T22:02:21.180Z,98142.34
2019-05-19T22:05:11.001Z,98143.25
2019-05-19T22:11:26.513Z,98148.05
2019-05-19T22:14:16.355Z,98145.52
2019-05-19T22:17:06.170Z,98153.85
2019-05-19T22:19:56.017Z,98147.09
2019-05-19T22:22:45.918Z,98154.22
2019-05-19T22:25:35.869Z,98154.22
2019-05-19T22:28:06.409Z,98157.73
2019-05-19T22:30:56.239Z,98158.53
2019-05-19T22:33:46.052Z,98157.73
2019-05-19T22:36:35.854Z,98153.27
2019-05-19T22:39:08.158Z,98151.34
2019-05-19T22:41:57.953Z,98150.52
2019-05-19T22:47:50.787Z,98149.78
2019-05-19T22:50:21.503Z,98157.61
2019-05-19T22:53:11.324Z,98156.16
2019-05-19T22:56:01.141Z,98148.03
2019-05-19T22:58:50.979Z,98151.70
2019-05-19T23:01:21.542Z,98146.46
2019-05-19T23:04:11.488Z,98143.70
2019-05-19T23:07:01.294Z,98146.05
2019-05-19T23:09:51.143Z,98147.48
2019-05-19T23:12:40.955Z,98151.35
2019-05-19T23:15:30.776Z,98147.88
2019-05-19T23:18:20.609Z,98140.06
2019-05-19T23:21:10.462Z,98145.44
2019-05-19T23:24:00.263Z,98147.55
2019-05-19T23:26:50.082Z,98147.01
2019-05-19T23:29:39.890Z,98142.59
2019-05-19T23:32:29.778Z,98144.82
2019-05-19T23:35:01.810Z,98142.77
2019-05-19T23:37:51.650Z,98146.78
2019-05-19T23:40:41.422Z,98146.43
2019-05-19T23:43:31.260Z,98146.17
2019-05-19T23:46:21.043Z,98146.46
2019-05-19T23:49:10.882Z,98143.69
2019-05-19T23:52:00.724Z,98143.88
2019-05-19T23:57:53.626Z,98129.11
